createdAt,value
2022-07-26T00:01:07.648Z,31.90
2022-07-26T00:03:42.000Z,31.90
2022-07-26T00:06:24.799Z,32.20
2022-07-26T00:09:01.853Z,32.40
2022-07-26T00:11:35.724Z,32.40
2022-07-26T00:17:08.783Z,33.00
2022-07-26T00:19:43.615Z,33.00
2022-07-26T00:22:31.462Z,33.00
2022-07-26T00:25:02.814Z,33.20
2022-07-26T00:27:34.045Z,33.10
2022-07-26T00:30:06.994Z,33.20
2022-07-26T00:32:38.384Z,33.10
2022-07-26T00:35:14.628Z,33.10
2022-07-26T00:37:47.637Z,33.20
2022-07-26T00:40:21.425Z,33.10
2022-07-26T00:43:05.383Z,33.00
2022-07-26T00:45:36.717Z,33.00
2022-07-26T00:48:09.388Z,33.00
2022-07-26T00:50:43.600Z,33.00
2022-07-26T00:53:16.212Z,32.90
2022-07-26T00:55:47.708Z,33.00
2022-07-26T00:58:19.021Z,33.00
2022-07-26T01:00:50.958Z,33.00
2022-07-26T01:03:22.441Z,33.10
2022-07-26T01:05:55.727Z,33.00
2022-07-26T01:08:26.979Z,33.10
2022-07-26T01:10:58.873Z,33.50
2022-07-26T01:13:34.894Z,33.50
2022-07-26T01:16:07.280Z,33.90
2022-07-26T01:18:38.659Z,33.60
2022-07-26T01:21:14.348Z,33.60
2022-07-26T01:23:48.553Z,34.20
2022-07-26T01:26:20.235Z,34.60
2022-07-26T01:28:51.561Z,35.00
2022-07-26T01:31:22.768Z,35.30
2022-07-26T01:33:54.578Z,35.60
2022-07-26T01:36:25.546Z,35.10
2022-07-26T01:38:59.996Z,35.10
2022-07-26T01:41:37.500Z,35.10
2022-07-26T01:44:11.063Z,35.30
2022-07-26T01:46:42.884Z,35.30
2022-07-26T01:49:14.255Z,35.40
2022-07-26T01:51:46.855Z,35.50
2022-07-26T01:54:22.562Z,35.50
2022-07-26T01:56:56.225Z,35.00
2022-07-26T01:59:27.454Z,34.90
2022-07-26T02:01:59.020Z,34.60
2022-07-26T02:04:47.209Z,34.70
2022-07-26T02:07:20.503Z,34.50
2022-07-26T02:09:54.926Z,34.10
2022-07-26T02:12:27.087Z,33.70
2022-07-26T02:14:58.618Z,33.10
2022-07-26T02:17:30.704Z,32.40
2022-07-26T02:20:02.467Z,32.00
2022-07-26T02:22:33.851Z,31.40
2022-07-26T02:25:22.853Z,30.80
2022-07-26T02:27:54.087Z,30.50
2022-07-26T02:30:25.098Z,30.30
2022-07-26T02:33:00.768Z,30.10
2022-07-26T02:35:32.965Z,29.90
2022-07-26T02:38:19.690Z,29.80
2022-07-26T02:43:42.288Z,29.50
2022-07-26T02:46:30.798Z,29.30
2022-07-26T02:49:08.619Z,29.20
2022-07-26T02:51:42.298Z,29.00
2022-07-26T02:54:15.583Z,28.90
2022-07-26T03:00:45.425Z,28.60
2022-07-26T03:03:21.152Z,28.40
2022-07-26T03:09:21.044Z,28.10
2022-07-26T03:11:54.272Z,27.90
2022-07-26T03:14:26.573Z,27.90
2022-07-26T03:17:02.054Z,27.80
2022-07-26T03:19:48.881Z,27.70
2022-07-26T03:22:36.924Z,27.60
2022-07-26T03:28:00.082Z,27.30
2022-07-26T03:30:33.948Z,27.20
2022-07-26T03:33:10.642Z,27.20
2022-07-26T03:35:57.755Z,27.00
2022-07-26T03:38:32.004Z,26.90
2022-07-26T03:41:03.555Z,26.80
2022-07-26T03:43:36.398Z,26.70
2022-07-26T03:46:10.578Z,26.60
2022-07-26T03:48:44.204Z,26.40
2022-07-26T03:51:15.227Z,26.30
2022-07-26T03:53:56.837Z,26.10
2022-07-26T03:56:30.428Z,26.00
2022-07-26T03:59:03.251Z,25.90
2022-07-26T04:01:43.114Z,25.70
2022-07-26T04:04:25.216Z,25.70
2022-07-26T04:07:08.173Z,25.50
2022-07-26T04:09:43.107Z,25.40
2022-07-26T04:12:24.608Z,25.30
2022-07-26T04:14:58.611Z,25.20
2022-07-26T04:20:14.616Z,25.00
2022-07-26T04:22:50.895Z,24.90
2022-07-26T04:25:24.257Z,24.80
2022-07-26T04:27:55.584Z,24.70
2022-07-26T04:30:29.096Z,24.60
2022-07-26T04:33:00.371Z,24.50
2022-07-26T04:35:34.047Z,24.50
2022-07-26T04:38:05.393Z,24.40
2022-07-26T04:40:40.653Z,24.30
2022-07-26T04:43:15.963Z,24.30
2022-07-26T04:45:48.784Z,24.20
2022-07-26T04:48:20.835Z,24.10
2022-07-26T04:50:53.680Z,24.10
2022-07-26T04:53:25.056Z,24.00
2022-07-26T04:58:53.229Z,23.80
2022-07-26T05:01:24.957Z,23.80
2022-07-26T05:03:56.706Z,23.80
2022-07-26T05:06:31.200Z,23.70
2022-07-26T05:09:02.466Z,23.70
2022-07-26T05:11:33.775Z,23.60
2022-07-26T05:14:06.001Z,23.60
2022-07-26T05:16:43.987Z,23.50
2022-07-26T05:19:17.348Z,23.40
2022-07-26T05:21:52.592Z,23.40
2022-07-26T05:24:24.108Z,23.30
2022-07-26T05:26:58.544Z,23.20
2022-07-26T05:29:30.391Z,23.20
2022-07-26T05:32:01.453Z,23.20
2022-07-26T05:34:33.472Z,23.20
2022-07-26T05:37:09.407Z,23.20
2022-07-26T05:39:41.042Z,23.10
2022-07-26T05:42:12.208Z,23.10
2022-07-26T05:44:43.292Z,23.00
2022-07-26T05:47:31.179Z,23.00
2022-07-26T05:50:02.782Z,22.90
2022-07-26T05:52:36.362Z,22.80
2022-07-26T05:55:08.349Z,22.70
2022-07-26T05:57:42.707Z,22.60
2022-07-26T06:00:14.455Z,22.60
2022-07-26T06:02:46.189Z,22.50
2022-07-26T06:05:18.073Z,22.40
2022-07-26T06:07:52.441Z,22.40
2022-07-26T06:10:23.117Z,22.30
2022-07-26T06:12:55.333Z,22.30
2022-07-26T06:15:26.862Z,22.30
2022-07-26T06:17:58.461Z,22.30
2022-07-26T06:20:30.433Z,22.20
2022-07-26T06:23:04.243Z,22.20
2022-07-26T06:25:35.964Z,22.20
2022-07-26T06:28:08.749Z,22.20
2022-07-26T06:30:41.384Z,22.20
2022-07-26T06:33:12.738Z,22.20
2022-07-26T06:35:44.305Z,22.20
2022-07-26T06:38:32.387Z,22.10
2022-07-26T06:41:03.794Z,22.10
2022-07-26T06:43:35.540Z,22.10
2022-07-26T06:46:06.862Z,22.00
2022-07-26T06:48:39.733Z,22.00
2022-07-26T06:51:18.738Z,22.00
2022-07-26T06:53:52.248Z,22.00
2022-07-26T06:56:24.841Z,21.90
2022-07-26T06:58:58.132Z,21.80
2022-07-26T07:01:58.459Z,21.80
2022-07-26T07:04:20.493Z,21.80
2022-07-26T07:06:55.522Z,21.70
2022-07-26T07:09:31.374Z,21.70
2022-07-26T07:12:10.093Z,21.60
2022-07-26T07:14:42.294Z,21.60
2022-07-26T07:17:17.252Z,21.50
2022-07-26T07:19:51.251Z,21.40
2022-07-26T07:22:23.407Z,21.40
2022-07-26T07:24:56.661Z,21.30
2022-07-26T07:27:29.189Z,21.30
2022-07-26T07:30:01.264Z,21.20
2022-07-26T07:32:33.823Z,21.20
2022-07-26T07:35:12.645Z,21.20
2022-07-26T07:37:53.049Z,21.10
2022-07-26T07:40:27.957Z,21.10
2022-07-26T07:43:02.030Z,21.10
2022-07-26T07:45:33.320Z,21.00
2022-07-26T07:48:05.296Z,21.00
2022-07-26T07:50:37.009Z,21.00
2022-07-26T07:53:10.028Z,20.90
2022-07-26T07:55:46.449Z,20.90
2022-07-26T07:58:19.122Z,20.90
2022-07-26T08:00:50.515Z,20.80
2022-07-26T08:03:22.293Z,20.80
2022-07-26T08:05:53.436Z,20.80
2022-07-26T08:08:25.259Z,20.70
2022-07-26T08:10:59.427Z,20.70
2022-07-26T08:13:30.345Z,20.60
2022-07-26T08:16:03.674Z,20.60
2022-07-26T08:18:42.059Z,20.60
2022-07-26T08:21:26.331Z,20.50
2022-07-26T08:24:00.666Z,20.50
2022-07-26T08:26:34.490Z,20.40
2022-07-26T08:29:06.446Z,20.40
2022-07-26T08:31:38.025Z,20.40
2022-07-26T08:34:09.571Z,20.30
2022-07-26T08:36:54.844Z,20.30
2022-07-26T08:39:32.841Z,20.30
2022-07-26T08:42:06.617Z,20.30
2022-07-26T08:44:38.607Z,20.30
2022-07-26T08:47:10.339Z,20.20
2022-07-26T08:49:42.118Z,20.20
2022-07-26T08:52:14.807Z,20.20
2022-07-26T08:54:48.142Z,20.20
2022-07-26T08:57:21.402Z,20.10
2022-07-26T09:00:23.333Z,20.10
2022-07-26T09:02:55.103Z,20.20
2022-07-26T09:05:33.169Z,20.10
2022-07-26T09:08:25.093Z,20.00
2022-07-26T09:10:56.586Z,20.00
2022-07-26T09:13:30.444Z,20.00
2022-07-26T09:16:13.642Z,20.00
2022-07-26T09:18:44.529Z,19.90
2022-07-26T09:21:33.490Z,19.90
2022-07-26T09:24:05.381Z,20.00
2022-07-26T09:26:36.847Z,20.00
2022-07-26T09:29:12.053Z,19.90
2022-07-26T09:31:45.579Z,19.90
2022-07-26T09:34:27.183Z,19.90
2022-07-26T09:36:59.621Z,19.80
2022-07-26T09:39:33.512Z,19.70
2022-07-26T09:42:28.523Z,19.70
2022-07-26T09:45:03.537Z,19.70
2022-07-26T09:47:41.793Z,19.60
2022-07-26T09:50:17.947Z,19.60
2022-07-26T09:53:12.548Z,19.60
2022-07-26T09:55:59.839Z,19.60
2022-07-26T09:58:31.262Z,19.60
2022-07-26T10:01:05.297Z,19.50
2022-07-26T10:03:37.777Z,19.50
2022-07-26T10:06:12.164Z,19.50
2022-07-26T10:08:45.350Z,19.50
2022-07-26T10:11:20.062Z,19.40
2022-07-26T10:13:51.276Z,19.40
2022-07-26T10:16:35.532Z,19.40
2022-07-26T10:19:09.858Z,19.40
2022-07-26T10:21:42.312Z,19.30
2022-07-26T10:24:29.558Z,19.30
2022-07-26T10:27:01.816Z,19.30
2022-07-26T10:29:33.385Z,19.30
2022-07-26T10:32:21.195Z,19.20
2022-07-26T10:34:52.641Z,19.20
2022-07-26T10:37:30.737Z,19.20
2022-07-26T10:40:23.602Z,19.20
2022-07-26T10:42:55.359Z,19.20
2022-07-26T10:45:27.099Z,19.20
2022-07-26T10:48:20.741Z,19.20
2022-07-26T10:50:54.769Z,19.10
2022-07-26T10:53:28.343Z,19.10
2022-07-26T10:56:03.210Z,19.10
2022-07-26T10:58:45.993Z,19.10
2022-07-26T11:01:18.006Z,19.00
2022-07-26T11:03:51.704Z,19.00
2022-07-26T11:06:23.466Z,19.00
2022-07-26T11:08:57.554Z,18.90
2022-07-26T11:11:33.559Z,18.90
2022-07-26T11:14:13.164Z,18.90
2022-07-26T11:16:46.601Z,18.90
2022-07-26T11:19:22.009Z,18.90
2022-07-26T11:22:00.560Z,18.90
2022-07-26T11:24:32.666Z,18.90
2022-07-26T11:27:07.803Z,18.80
2022-07-26T11:29:41.375Z,18.80
2022-07-26T11:32:22.272Z,18.70
2022-07-26T11:35:04.791Z,18.60
2022-07-26T11:37:36.581Z,18.60
2022-07-26T11:40:09.725Z,18.60
2022-07-26T11:42:41.990Z,18.50
2022-07-26T11:45:15.696Z,18.50
2022-07-26T11:47:47.136Z,18.50
2022-07-26T11:50:23.462Z,18.50
2022-07-26T11:52:58.444Z,18.50
2022-07-26T11:55:31.180Z,18.40
2022-07-26T11:58:09.760Z,18.40
2022-07-26T12:00:41.349Z,18.30
2022-07-26T12:03:12.617Z,18.30
2022-07-26T12:05:45.745Z,18.30
2022-07-26T12:08:16.927Z,18.30
2022-07-26T12:10:56.694Z,18.20
2022-07-26T12:13:28.509Z,18.20
2022-07-26T12:16:37.822Z,18.20
2022-07-26T12:19:10.028Z,18.20
2022-07-26T12:21:51.577Z,18.20
2022-07-26T12:24:38.042Z,18.10
2022-07-26T12:27:11.707Z,18.10
2022-07-26T12:29:44.780Z,18.10
2022-07-26T12:32:18.522Z,18.20
2022-07-26T12:35:01.180Z,18.20
2022-07-26T12:37:40.542Z,18.10
2022-07-26T12:40:14.656Z,18.10
2022-07-26T12:42:47.601Z,18.10
2022-07-26T12:45:19.826Z,18.00
2022-07-26T12:47:54.357Z,18.00
2022-07-26T12:50:30.078Z,18.00
2022-07-26T12:53:07.376Z,18.00
2022-07-26T12:55:40.730Z,18.00
2022-07-26T12:58:12.096Z,18.00
2022-07-26T13:00:43.385Z,17.90
2022-07-26T13:03:14.970Z,17.90
2022-07-26T13:05:46.502Z,17.90
2022-07-26T13:08:19.999Z,17.90
2022-07-26T13:10:55.503Z,17.90
2022-07-26T13:13:30.004Z,17.90
2022-07-26T13:16:03.724Z,17.90
2022-07-26T13:18:36.872Z,18.00
2022-07-26T13:21:09.530Z,18.00
2022-07-26T13:23:44.637Z,18.00
2022-07-26T13:26:21.756Z,18.00
2022-07-26T13:28:53.281Z,18.10
2022-07-26T13:31:24.496Z,18.10
2022-07-26T13:33:55.956Z,18.10
2022-07-26T13:36:26.947Z,18.10
2022-07-26T13:39:00.747Z,18.20
2022-07-26T13:41:33.129Z,18.20
2022-07-26T13:44:09.374Z,18.20
2022-07-26T13:46:42.840Z,18.30
2022-07-26T13:49:14.814Z,18.30
2022-07-26T13:52:02.188Z,18.30
2022-07-26T13:54:38.116Z,18.40
2022-07-26T13:57:09.563Z,18.40
2022-07-26T13:59:40.836Z,18.40
2022-07-26T14:02:12.569Z,18.60
2022-07-26T14:04:44.184Z,18.60
2022-07-26T14:07:15.322Z,18.70
2022-07-26T14:09:48.572Z,18.70
2022-07-26T14:12:22.714Z,18.80
2022-07-26T14:14:54.179Z,18.80
2022-07-26T14:17:25.688Z,18.90
2022-07-26T14:19:56.999Z,19.00
2022-07-26T14:22:28.431Z,19.10
2022-07-26T14:25:02.668Z,19.10
2022-07-26T14:27:33.888Z,19.20
2022-07-26T14:30:06.161Z,19.20
2022-07-26T14:32:38.064Z,19.30
2022-07-26T14:35:10.147Z,19.40
2022-07-26T14:37:44.721Z,19.40
2022-07-26T14:40:20.845Z,19.50
2022-07-26T14:42:51.677Z,19.60
2022-07-26T14:45:22.655Z,19.60
2022-07-26T14:47:54.260Z,19.80
2022-07-26T14:50:27.065Z,19.90
2022-07-26T14:52:58.880Z,20.10
2022-07-26T14:55:33.189Z,20.50
2022-07-26T14:58:04.898Z,21.20
2022-07-26T15:00:36.495Z,21.90
2022-07-26T15:03:10.142Z,22.50
2022-07-26T15:05:41.995Z,23.00
2022-07-26T15:08:14.865Z,23.50
2022-07-26T15:10:47.330Z,23.80
2022-07-26T15:13:19.307Z,24.20
2022-07-26T15:15:50.887Z,24.20
2022-07-26T15:18:30.532Z,24.40
2022-07-26T15:21:08.111Z,24.60
2022-07-26T15:23:53.840Z,24.90
2022-07-26T15:26:28.866Z,24.90
2022-07-26T15:29:00.311Z,24.70
2022-07-26T15:31:37.216Z,24.40
2022-07-26T15:34:12.529Z,23.90
2022-07-26T15:36:45.452Z,23.70
2022-07-26T15:39:18.054Z,23.70
2022-07-26T15:45:09.223Z,23.40
2022-07-26T15:48:05.500Z,23.40
2022-07-26T15:50:33.263Z,23.50
2022-07-26T15:53:22.113Z,23.40
2022-07-26T15:55:57.089Z,23.50
2022-07-26T15:58:39.191Z,23.50
2022-07-26T16:01:16.773Z,23.30
2022-07-26T16:06:30.671Z,23.40
2022-07-26T16:09:23.171Z,23.50
2022-07-26T16:12:11.297Z,23.50
2022-07-26T16:14:45.553Z,23.60
2022-07-26T16:17:17.115Z,23.60
2022-07-26T16:19:49.797Z,23.70
2022-07-26T16:22:21.746Z,23.70
2022-07-26T16:24:55.458Z,23.80
2022-07-26T16:27:29.819Z,23.80
2022-07-26T16:30:01.919Z,23.90
2022-07-26T16:32:33.202Z,23.90
2022-07-26T16:35:04.400Z,24.00
2022-07-26T16:37:36.034Z,24.10
2022-07-26T16:40:11.578Z,24.10
2022-07-26T16:42:42.798Z,24.20
2022-07-26T16:45:15.579Z,24.40
2022-07-26T16:47:46.954Z,24.40
2022-07-26T16:50:27.224Z,24.40
2022-07-26T16:52:59.314Z,24.50
2022-07-26T16:55:32.627Z,24.60
2022-07-26T16:58:13.478Z,24.70
2022-07-26T17:03:44.259Z,24.90
2022-07-26T17:06:19.102Z,25.00
2022-07-26T17:08:54.848Z,25.10
2022-07-26T17:11:31.981Z,25.30
2022-07-26T17:14:17.416Z,25.40
2022-07-26T17:16:48.736Z,25.50
2022-07-26T17:19:20.998Z,25.60
2022-07-26T17:21:52.335Z,25.60
2022-07-26T17:24:23.824Z,25.70
2022-07-26T17:27:02.116Z,25.70
2022-07-26T17:29:33.858Z,25.90
2022-07-26T17:32:05.518Z,26.00
2022-07-26T17:34:36.493Z,26.20
2022-07-26T17:37:10.181Z,26.20
2022-07-26T17:39:52.505Z,26.30
2022-07-26T17:42:28.238Z,26.50
2022-07-26T17:45:01.831Z,26.50
2022-07-26T17:47:33.069Z,26.70
2022-07-26T17:50:35.539Z,26.70
2022-07-26T17:53:19.405Z,26.80
2022-07-26T17:55:56.321Z,26.90
2022-07-26T17:58:41.034Z,27.00
2022-07-26T18:01:21.538Z,27.10
2022-07-26T18:04:00.344Z,27.30
2022-07-26T18:09:19.714Z,27.50
2022-07-26T18:12:02.414Z,27.60
2022-07-26T18:14:40.139Z,27.60
2022-07-26T18:17:13.676Z,27.40
2022-07-26T18:19:53.787Z,27.40
2022-07-26T18:22:26.480Z,27.40
2022-07-26T18:24:58.314Z,27.50
2022-07-26T18:27:29.483Z,27.70
2022-07-26T18:30:07.574Z,27.80
2022-07-26T18:32:38.707Z,27.90
2022-07-26T18:35:10.461Z,28.00
2022-07-26T18:37:41.814Z,28.20
2022-07-26T18:40:28.196Z,28.20
2022-07-26T18:42:59.402Z,28.30
2022-07-26T18:45:33.258Z,28.30
2022-07-26T18:48:05.723Z,28.50
2022-07-26T18:50:37.240Z,28.50
2022-07-26T18:53:16.555Z,28.60
2022-07-26T18:55:50.686Z,28.60
2022-07-26T18:58:26.552Z,28.60
2022-07-26T19:03:40.679Z,28.70
2022-07-26T19:06:13.301Z,28.70
2022-07-26T19:08:47.328Z,28.80
2022-07-26T19:11:18.934Z,28.90
2022-07-26T19:16:59.053Z,28.90
2022-07-26T19:22:43.410Z,28.90
2022-07-26T19:28:11.370Z,29.30
2022-07-26T19:30:58.717Z,29.40
2022-07-26T19:33:40.713Z,29.30
2022-07-26T19:36:25.258Z,29.10
2022-07-26T19:38:58.676Z,29.20
2022-07-26T19:41:30.044Z,29.40
2022-07-26T19:44:04.537Z,29.40
2022-07-26T19:46:40.788Z,29.50
2022-07-26T19:52:08.335Z,29.70
2022-07-26T19:54:44.135Z,30.00
2022-07-26T19:57:16.061Z,30.00
2022-07-26T19:59:57.633Z,30.10
2022-07-26T20:02:31.273Z,30.20
2022-07-26T20:05:05.655Z,30.00
2022-07-26T20:08:15.608Z,30.00
2022-07-26T20:17:51.573Z,30.10
2022-07-26T20:20:29.725Z,30.10
2022-07-26T20:23:07.634Z,30.40
2022-07-26T20:25:42.871Z,30.50
2022-07-26T20:28:24.137Z,30.60
2022-07-26T20:31:09.518Z,30.70
2022-07-26T20:34:25.762Z,30.70
2022-07-26T20:36:59.712Z,30.80
2022-07-26T20:39:31.002Z,31.10
2022-07-26T20:42:03.440Z,31.20
2022-07-26T20:44:48.570Z,31.40
2022-07-26T20:47:23.615Z,31.50
2022-07-26T20:50:03.312Z,31.50
2022-07-26T20:52:48.230Z,31.50
2022-07-26T20:55:27.014Z,31.50
2022-07-26T20:58:01.590Z,31.50
2022-07-26T21:03:19.729Z,31.80
2022-07-26T21:05:51.393Z,32.00
2022-07-26T21:08:25.808Z,32.10
2022-07-26T21:10:58.638Z,32.20
2022-07-26T21:13:32.712Z,32.00
2022-07-26T21:16:04.917Z,32.20
2022-07-26T21:22:01.537Z,32.20
2022-07-26T21:24:36.582Z,32.40
2022-07-26T21:27:08.740Z,32.60
2022-07-26T21:29:40.835Z,32.70
2022-07-26T21:35:15.547Z,32.90
2022-07-26T21:37:47.039Z,33.20
2022-07-26T21:43:34.291Z,33.60
2022-07-26T21:49:13.699Z,33.60
2022-07-26T21:51:48.075Z,33.50
2022-07-26T22:00:47.827Z,34.00
2022-07-26T22:03:22.059Z,34.20
2022-07-26T22:06:08.325Z,34.10
2022-07-26T22:08:41.867Z,34.00
2022-07-26T22:11:22.666Z,34.20
2022-07-26T22:13:57.300Z,34.50
2022-07-26T22:16:28.736Z,34.70
2022-07-26T22:19:10.998Z,34.90
2022-07-26T22:21:43.511Z,35.00
2022-07-26T22:24:15.717Z,35.10
2022-07-26T22:27:02.337Z,35.40
2022-07-26T22:29:40.034Z,35.60
2022-07-26T22:32:12.561Z,35.40
2022-07-26T22:34:46.943Z,35.30
2022-07-26T22:37:18.487Z,35.70
2022-07-26T22:42:33.250Z,35.40
2022-07-26T22:45:09.929Z,35.40
2022-07-26T22:47:56.482Z,35.70
2022-07-26T22:50:30.904Z,35.60
2022-07-26T22:53:06.570Z,35.90
2022-07-26T22:55:37.694Z,36.10
2022-07-26T23:14:18.676Z,36.50
2022-07-26T23:16:51.652Z,36.50
2022-07-26T23:19:26.690Z,36.80
2022-07-26T23:21:59.491Z,36.60
2022-07-26T23:24:30.678Z,36.90
2022-07-26T23:27:03.717Z,37.00
2022-07-26T23:29:41.308Z,37.20
2022-07-26T23:37:31.833Z,36.50
2022-07-26T23:40:06.792Z,36.30
2022-07-26T23:42:38.356Z,36.50
2022-07-26T23:48:20.211Z,36.30
2022-07-26T23:50:52.218Z,36.60
2022-07-26T23:53:39.009Z,36.80
2022-07-26T23:56:12.286Z,36.80
2022-07-26T23:58:44.396Z,36.90
